Pagina principale
METAR-TAF:

METAR-TAF

Aeroporti :

Monte Argentario, Italia

latitudine: 42-23N, longitudine: 011-10E, altezza: 630 m

Osservazione

Il bollettino è stato emesso 53 minuti fa, alle 08:55 UTC
Vento 10 kt da nord-est
Temperature 7°C
Umidità 100%
Pressione 1009 hPa
Visibilità 10 km o più
Nubi sparse ad un'altezza di 1000 ft
Nubi sparse ad un'altezza di 5000 ft

METAR: LIQO 090855Z 04010KT 9999 SCT010 SCT050 07/07 Q1009 RMK BKN VAL NIL NC VIS MIN 9999

Ora: 10:48 (09:48 UTC)


TAF: mancante

Osservazioni e previsioni meteorologiche di più di 4000 aeroporti (messaggi METAR e TAF).

Le stazioni disponibili sono rappresentate dai dischi gialli e rossi sulla carta.

Puntare il mouse per vedere il nome della stazione.

Clicca sopra per visualizzare le osservazioni e previsioni meteorologiche.

Per cambiare la mappa : fare clic sui pulsanti verdi con una croce nera per ingrandire, il pulsante verde con un trattino per diminuire, o sulla freccia verde per le mappe adiacenti.


METAR-TAF: